Time;durP1;ratioP1;P1;durP2;ratioP2;P2;SDS_P1;SDS_P2;PMS_P1;PMS_P2;Temp;Humidity;BMP_temperature;BMP_pressure;BME280_temperature;BME280_humidity;BME280_pressure;Samples;Min_cycle;Max_cycle;Signal;HPM_P1;HPM_P2
2022/01/21 00:00:05;;;;;;;14.37;5.03;;;;;;;;;;2072273;28;20200;-56
2022/01/21 00:01:10;;;;;;;12.20;4.27;;;;;;;;;;2072803;28;20173;-56
2022/01/21 00:02:11;;;;;;;8.00;4.00;;;;;;;;;;2070441;28;20169;-59
2022/01/21 00:03:11;;;;;;;10.53;4.77;;;;;;;;;;2072557;28;20165;-57
2022/01/21 00:04:11;;;;;;;10.30;3.93;;;;;;;;;;2071632;28;20658;-54
2022/01/21 00:05:11;;;;;;;9.23;4.40;;;;;;;;;;2071549;28;20197;-56
2022/01/21 00:06:12;;;;;;;13.87;4.70;;;;;;;;;;2072807;28;20173;-53
2022/01/21 00:07:12;;;;;;;13.00;4.07;;;;;;;;;;2072539;28;20197;-58
2022/01/21 00:08:12;;;;;;;10.23;4.20;;;;;;;;;;2072217;28;20177;-60
2022/01/21 00:09:12;;;;;;;13.67;4.23;;;;;;;;;;2071917;28;20204;-57
2022/01/21 00:10:13;;;;;;;9.13;3.57;;;;;;;;;;2073807;28;20169;-60
2022/01/21 00:11:14;;;;;;;11.00;4.27;;;;;;;;;;2074343;28;20544;-59
2022/01/21 00:12:14;;;;;;;9.40;4.03;;;;;;;;;;2074261;28;20173;-55
2022/01/21 00:13:18;;;;;;;9.93;4.70;;;;;;;;;;2074344;28;20442;-55
2022/01/21 00:14:18;;;;;;;12.60;5.00;;;;;;;;;;2073908;28;20537;-60
2022/01/21 00:15:19;;;;;;;12.33;4.80;;;;;;;;;;2074024;28;20476;-57
2022/01/21 00:16:21;;;;;;;9.30;3.93;;;;;;;;;;2074183;28;20279;-57
2022/01/21 00:17:23;;;;;;;13.37;4.13;;;;;;;;;;2074190;28;20772;-58
2022/01/21 00:18:23;;;;;;;7.83;4.20;;;;;;;;;;2073320;28;20771;-55
2022/01/21 00:19:25;;;;;;;9.47;4.00;;;;;;;;;;2073137;28;20437;-59
2022/01/21 00:30:12;;;;;;;6.90;3.53;;;;;;;;;;2070362;28;20779;-59
2022/01/21 00:31:12;;;;;;;11.37;4.53;;;;;;;;;;2074239;28;20414;-59
2022/01/21 00:32:12;;;;;;;12.13;4.03;;;;;;;;;;2074095;28;20409;-55
2022/01/21 00:33:12;;;;;;;8.10;3.83;;;;;;;;;;2073329;28;20177;-60
2022/01/21 00:34:13;;;;;;;11.33;3.70;;;;;;;;;;2073492;28;20169;-58
2022/01/21 00:35:13;;;;;;;17.17;4.60;;;;;;;;;;2073400;28;20175;-58
2022/01/21 00:36:14;;;;;;;14.33;5.00;;;;;;;;;;2065078;28;20244;-59
2022/01/21 00:37:14;;;;;;;13.90;4.10;;;;;;;;;;2073784;28;20177;-60
2022/01/21 00:38:15;;;;;;;12.67;4.67;;;;;;;;;;2073020;28;20661;-59
2022/01/21 00:39:19;;;;;;;13.83;4.07;;;;;;;;;;2064626;28;20504;-56
2022/01/21 00:40:22;;;;;;;10.97;4.73;;;;;;;;;;2065806;28;20182;-59
2022/01/21 00:41:27;;;;;;;9.00;3.53;;;;;;;;;;2065706;28;20181;-58
2022/01/21 00:42:50;;;;;;;9.50;4.90;;;;;;;;;;2073575;28;20173;-58
2022/01/21 00:43:47;;;;;;;9.70;4.20;;;;;;;;;;2073817;28;20410;-57
2022/01/21 00:44:51;;;;;;;8.63;3.67;;;;;;;;;;2072796;28;20894;-58
2022/01/21 00:45:52;;;;;;;8.60;3.83;;;;;;;;;;2073315;28;20695;-62
2022/01/21 00:46:53;;;;;;;14.23;4.20;;;;;;;;;;2063199;28;21157;-59
2022/01/21 00:47:53;;;;;;;9.50;4.30;;;;;;;;;;2065490;28;20260;-61
2022/01/21 00:48:53;;;;;;;14.80;5.00;;;;;;;;;;2064672;28;20836;-57
2022/01/21 00:49:54;;;;;;;7.57;3.97;;;;;;;;;;2073545;28;20196;-56
2022/01/21 00:50:55;;;;;;;10.83;3.23;;;;;;;;;;2073804;28;20308;-59
2022/01/21 00:51:55;;;;;;;9.30;3.97;;;;;;;;;;2074157;28;20173;-58
2022/01/21 00:52:55;;;;;;;11.50;4.03;;;;;;;;;;2073879;28;20199;-61
2022/01/21 00:53:56;;;;;;;4.50;3.37;;;;;;;;;;2074123;28;20173;-61
2022/01/21 00:54:56;;;;;;;7.30;3.57;;;;;;;;;;2074079;28;20177;-59
2022/01/21 00:55:56;;;;;;;11.03;3.20;;;;;;;;;;2073814;28;20168;-58
2022/01/21 00:56:56;;;;;;;8.53;4.10;;;;;;;;;;2072798;28;20174;-59
2022/01/21 00:57:57;;;;;;;5.13;3.33;;;;;;;;;;2073198;28;20176;-57
2022/01/21 00:58:57;;;;;;;9.27;3.50;;;;;;;;;;2072043;28;20192;-58
2022/01/21 00:59:57;;;;;;;9.10;3.53;;;;;;;;;;2072062;28;20169;-60
2022/01/21 01:00:57;;;;;;;8.10;3.20;;;;;;;;;;2072495;28;20753;-59
2022/01/21 01:01:58;;;;;;;6.67;3.73;;;;;;;;;;2064217;28;20198;-59
2022/01/21 01:02:59;;;;;;;5.10;3.97;;;;;;;;;;2069813;28;20165;-54
2022/01/21 01:04:00;;;;;;;8.23;3.60;;;;;;;;;;2073117;28;20743;-57
2022/01/21 01:05:00;;;;;;;7.63;3.50;;;;;;;;;;2073714;28;20172;-59
2022/01/21 01:06:01;;;;;;;7.83;3.50;;;;;;;;;;2072041;28;20184;-58
2022/01/21 01:07:02;;;;;;;12.83;3.37;;;;;;;;;;2063760;28;20431;-59
2022/01/21 01:08:03;;;;;;;9.97;3.73;;;;;;;;;;2072962;28;20187;-59
2022/01/21 01:09:04;;;;;;;6.87;3.40;;;;;;;;;;2072350;28;20196;-61
2022/01/21 01:10:05;;;;;;;7.13;2.73;;;;;;;;;;2064230;28;20998;-59
2022/01/21 01:12:56;;;;;;;6.20;3.60;;;;;;;;;;2073315;28;20235;-57
2022/01/21 01:20:03;;;;;;;6.47;3.00;;;;;;;;;;2073141;28;20843;-60
2022/01/21 01:21:04;;;;;;;9.67;3.00;;;;;;;;;;2065193;28;20486;-58
2022/01/21 01:22:06;;;;;;;6.03;3.37;;;;;;;;;;2072407;28;20448;-59
2022/01/21 01:23:24;;;;;;;10.50;4.40;;;;;;;;;;2073171;28;20636;-57
2022/01/21 01:28:20;;;;;;;10.10;3.63;;;;;;;;;;2067410;28;20791;-61
2022/01/21 01:29:21;;;;;;;6.30;3.00;;;;;;;;;;2072926;28;20217;-58
2022/01/21 01:30:23;;;;;;;8.60;2.97;;;;;;;;;;2072175;28;20169;-55
2022/01/21 01:31:23;;;;;;;10.27;3.17;;;;;;;;;;2065186;28;20173;-59
2022/01/21 01:32:24;;;;;;;7.30;3.23;;;;;;;;;;2064671;28;20415;-58
2022/01/21 01:33:34;;;;;;;11.30;3.63;;;;;;;;;;2049052;28;20185;-59
2022/01/21 01:34:34;;;;;;;6.50;3.33;;;;;;;;;;2059486;28;20381;-59
2022/01/21 01:35:35;;;;;;;7.30;3.53;;;;;;;;;;2073827;28;20397;-58
2022/01/21 01:36:35;;;;;;;8.33;4.00;;;;;;;;;;2072989;28;20229;-60
2022/01/21 01:37:54;;;;;;;6.23;3.30;;;;;;;;;;2073492;28;20172;-57
2022/01/21 01:40:20;;;;;;;8.60;3.13;;;;;;;;;;2072435;28;20438;-58
2022/01/21 01:41:23;;;;;;;6.20;3.00;;;;;;;;;;2073139;28;21096;-56
2022/01/21 01:49:33;;;;;;;5.97;4.07;;;;;;;;;;2072387;28;20179;-60
2022/01/21 01:50:34;;;;;;;4.90;3.07;;;;;;;;;;2072988;28;20511;-60
2022/01/21 01:51:34;;;;;;;5.53;3.27;;;;;;;;;;2073627;28;20419;-55
2022/01/21 01:52:34;;;;;;;9.07;3.60;;;;;;;;;;2072739;28;20279;-59
2022/01/21 01:53:46;;;;;;;8.37;3.30;;;;;;;;;;2072908;28;20181;-56
2022/01/21 01:54:47;;;;;;;7.40;3.97;;;;;;;;;;2073873;28;20153;-56
2022/01/21 01:55:48;;;;;;;12.30;3.87;;;;;;;;;;2073489;28;20176;-57
2022/01/21 01:56:50;;;;;;;9.73;3.40;;;;;;;;;;2072575;28;20541;-56
2022/01/21 01:57:50;;;;;;;6.77;3.40;;;;;;;;;;2064851;28;20162;-59
2022/01/21 01:58:51;;;;;;;7.83;3.37;;;;;;;;;;2072418;28;20441;-55
2022/01/21 01:59:51;;;;;;;7.63;3.77;;;;;;;;;;2072391;28;20586;-52
2022/01/21 02:00:51;;;;;;;8.73;3.23;;;;;;;;;;2072528;28;20180;-58
2022/01/21 02:01:59;;;;;;;8.80;3.67;;;;;;;;;;2073259;28;20183;-58
2022/01/21 02:03:05;;;;;;;8.13;3.27;;;;;;;;;;2073540;28;20173;-59
2022/01/21 02:04:06;;;;;;;7.20;3.40;;;;;;;;;;2073409;28;20165;-63
2022/01/21 02:05:06;;;;;;;5.90;3.80;;;;;;;;;;2071922;28;20177;-61
2022/01/21 02:06:06;;;;;;;9.40;3.40;;;;;;;;;;2072655;28;20224;-58
2022/01/21 02:07:08;;;;;;;7.53;3.43;;;;;;;;;;2072652;28;20196;-60
2022/01/21 02:08:11;;;;;;;6.20;3.53;;;;;;;;;;2064672;28;20660;-60
2022/01/21 02:09:11;;;;;;;8.23;3.70;;;;;;;;;;2064303;28;20185;-59
2022/01/21 02:10:12;;;;;;;6.50;3.67;;;;;;;;;;2064795;28;20185;-59
2022/01/21 02:11:12;;;;;;;4.70;3.10;;;;;;;;;;2058756;28;20179;-62
2022/01/21 02:12:13;;;;;;;5.10;3.43;;;;;;;;;;2063895;28;20185;-60
2022/01/21 02:13:26;;;;;;;8.33;3.80;;;;;;;;;;2062468;28;20165;-58
2022/01/21 02:14:31;;;;;;;11.40;4.10;;;;;;;;;;2072951;28;20877;-59
2022/01/21 02:15:35;;;;;;;12.33;4.00;;;;;;;;;;2072410;28;20180;-59
2022/01/21 02:16:54;;;;;;;10.13;3.83;;;;;;;;;;2064555;28;20438;-59
2022/01/21 02:21:54;;;;;;;6.07;3.87;;;;;;;;;;2072924;28;20933;-59
2022/01/21 02:22:54;;;;;;;8.40;4.10;;;;;;;;;;2064845;28;20507;-57
2022/01/21 02:23:55;;;;;;;8.97;3.63;;;;;;;;;;2065311;28;20165;-60
2022/01/21 02:25:10;;;;;;;9.90;4.47;;;;;;;;;;2064833;28;20453;-56
2022/01/21 02:26:11;;;;;;;11.17;3.77;;;;;;;;;;2064718;28;20615;-58
2022/01/21 02:27:11;;;;;;;8.57;3.60;;;;;;;;;;2057723;28;20412;-56
2022/01/21 02:28:15;;;;;;;10.73;3.60;;;;;;;;;;2064664;28;20177;-58
2022/01/21 02:29:26;;;;;;;7.83;3.30;;;;;;;;;;2064018;28;20201;-55
2022/01/21 02:30:27;;;;;;;8.40;3.97;;;;;;;;;;2058065;28;20995;-54
2022/01/21 02:31:31;;;;;;;8.00;4.23;;;;;;;;;;2066245;28;20411;-57
2022/01/21 02:32:31;;;;;;;12.17;4.67;;;;;;;;;;2072703;28;20504;-57
2022/01/21 02:33:32;;;;;;;14.83;4.60;;;;;;;;;;2072602;28;20264;-57
2022/01/21 02:34:32;;;;;;;10.20;4.40;;;;;;;;;;2072852;28;20196;-58
2022/01/21 02:35:33;;;;;;;13.17;4.47;;;;;;;;;;2064675;28;20188;-57
2022/01/21 02:36:34;;;;;;;9.33;3.60;;;;;;;;;;2072691;28;20493;-60
2022/01/21 02:37:35;;;;;;;14.57;5.03;;;;;;;;;;2064198;28;20178;-60
2022/01/21 02:38:35;;;;;;;7.40;3.40;;;;;;;;;;2064480;28;20216;-57
2022/01/21 02:39:35;;;;;;;8.53;3.77;;;;;;;;;;2071923;28;20684;-58
2022/01/21 02:40:35;;;;;;;11.00;4.43;;;;;;;;;;2073468;28;20712;-56
2022/01/21 02:41:36;;;;;;;7.47;4.13;;;;;;;;;;2073188;28;20188;-59
2022/01/21 02:42:36;;;;;;;10.30;4.30;;;;;;;;;;2073352;28;20192;-59
2022/01/21 02:43:37;;;;;;;8.73;4.10;;;;;;;;;;2072653;28;20169;-60
2022/01/21 02:44:38;;;;;;;9.47;4.27;;;;;;;;;;2064304;28;20340;-57
2022/01/21 02:45:44;;;;;;;9.97;4.13;;;;;;;;;;2064389;28;20568;-61
2022/01/21 02:46:45;;;;;;;13.47;3.43;;;;;;;;;;2054119;28;20472;-60
2022/01/21 02:47:45;;;;;;;10.07;4.10;;;;;;;;;;2056424;28;20448;-58
2022/01/21 02:48:46;;;;;;;14.30;3.93;;;;;;;;;;2064269;28;20197;-59
2022/01/21 02:49:46;;;;;;;20.33;4.57;;;;;;;;;;2064099;28;20184;-61
2022/01/21 02:50:46;;;;;;;11.47;4.03;;;;;;;;;;2064348;28;20174;-59
2022/01/21 02:51:46;;;;;;;6.40;3.73;;;;;;;;;;2072323;28;20180;-56
2022/01/21 02:53:09;;;;;;;12.13;4.63;;;;;;;;;;2064398;28;20213;-59
2022/01/21 02:54:09;;;;;;;11.50;3.90;;;;;;;;;;2072921;28;20164;-58
2022/01/21 02:55:09;;;;;;;12.53;3.63;;;;;;;;;;2072692;28;20564;-59
2022/01/21 02:56:10;;;;;;;9.70;3.20;;;;;;;;;;2064358;28;20223;-57
2022/01/21 02:57:12;;;;;;;8.43;4.10;;;;;;;;;;2056384;28;20174;-57
2022/01/21 02:58:12;;;;;;;8.80;4.20;;;;;;;;;;2064410;28;20407;-57
2022/01/21 02:59:13;;;;;;;10.53;3.97;;;;;;;;;;2071824;28;20434;-58
2022/01/21 03:00:14;;;;;;;13.57;3.90;;;;;;;;;;2064237;28;20186;-59
2022/01/21 03:01:15;;;;;;;8.93;3.23;;;;;;;;;;2064523;28;20247;-58
2022/01/21 03:02:16;;;;;;;11.33;4.03;;;;;;;;;;2064279;28;20177;-58
2022/01/21 03:03:16;;;;;;;15.03;4.13;;;;;;;;;;2064481;28;20843;-56
2022/01/21 03:04:27;;;;;;;10.37;4.23;;;;;;;;;;2072227;28;20195;-58
2022/01/21 03:05:27;;;;;;;8.67;4.27;;;;;;;;;;2065819;28;20220;-56
2022/01/21 03:06:28;;;;;;;14.20;4.00;;;;;;;;;;2064788;28;20181;-59
2022/01/21 03:07:28;;;;;;;16.57;3.80;;;;;;;;;;2064497;28;20231;-59
2022/01/21 03:08:29;;;;;;;8.47;3.80;;;;;;;;;;2063844;28;20534;-55
2022/01/21 03:09:29;;;;;;;6.70;3.63;;;;;;;;;;2072064;28;20851;-59
2022/01/21 03:10:29;;;;;;;8.93;4.13;;;;;;;;;;2073011;28;20172;-58
2022/01/21 03:11:30;;;;;;;12.87;3.80;;;;;;;;;;2073422;28;20183;-59
2022/01/21 03:12:30;;;;;;;13.60;3.50;;;;;;;;;;2072517;28;20172;-56
2022/01/21 03:13:30;;;;;;;8.47;3.90;;;;;;;;;;2064175;28;20178;-58
2022/01/21 03:14:30;;;;;;;9.20;3.67;;;;;;;;;;2072520;28;20259;-60
2022/01/21 03:15:31;;;;;;;9.83;3.40;;;;;;;;;;2072434;28;20199;-58
2022/01/21 03:16:31;;;;;;;5.40;3.40;;;;;;;;;;2063894;28;20197;-58
2022/01/21 03:17:31;;;;;;;10.30;4.20;;;;;;;;;;2072418;28;20589;-59
2022/01/21 03:18:32;;;;;;;16.43;5.03;;;;;;;;;;2064021;28;20161;-56
2022/01/21 03:19:32;;;;;;;10.13;3.70;;;;;;;;;;2063888;28;20193;-59
2022/01/21 03:20:32;;;;;;;8.50;3.93;;;;;;;;;;2064191;28;20245;-59
2022/01/21 03:21:32;;;;;;;8.07;4.07;;;;;;;;;;2056301;28;20645;-58
2022/01/21 03:22:33;;;;;;;9.80;3.80;;;;;;;;;;2064144;28;20631;-59
2022/01/21 03:23:34;;;;;;;13.60;4.40;;;;;;;;;;2064447;28;20236;-57
2022/01/21 03:24:35;;;;;;;13.23;4.03;;;;;;;;;;2064271;28;20173;-57
2022/01/21 03:25:35;;;;;;;9.90;3.73;;;;;;;;;;2064361;28;20435;-61
2022/01/21 03:26:36;;;;;;;9.07;3.83;;;;;;;;;;2064321;28;20170;-57
2022/01/21 03:27:37;;;;;;;10.77;4.70;;;;;;;;;;2064467;28;20410;-58
2022/01/21 03:28:38;;;;;;;12.03;4.67;;;;;;;;;;2064309;28;20545;-55
2022/01/21 03:29:38;;;;;;;10.87;4.43;;;;;;;;;;2072138;28;20223;-59
2022/01/21 03:30:39;;;;;;;12.90;4.83;;;;;;;;;;2072406;28;20262;-54
2022/01/21 03:31:45;;;;;;;13.13;4.73;;;;;;;;;;2072269;28;20173;-60
2022/01/21 03:32:45;;;;;;;13.07;4.13;;;;;;;;;;2062894;28;20505;-60
2022/01/21 03:33:46;;;;;;;11.00;4.27;;;;;;;;;;2064405;28;20407;-57
2022/01/21 03:34:46;;;;;;;10.03;3.90;;;;;;;;;;2064168;28;20166;-57
2022/01/21 03:35:47;;;;;;;11.80;4.70;;;;;;;;;;2061412;28;20184;-59
2022/01/21 03:36:47;;;;;;;16.20;4.50;;;;;;;;;;2072651;28;20260;-61
2022/01/21 03:37:47;;;;;;;14.97;5.47;;;;;;;;;;2072570;28;20165;-58
2022/01/21 03:38:48;;;;;;;11.83;4.57;;;;;;;;;;2064779;28;20546;-62
2022/01/21 03:39:48;;;;;;;12.60;4.63;;;;;;;;;;2064227;28;20231;-61
2022/01/21 03:40:48;;;;;;;13.07;5.00;;;;;;;;;;2065119;28;20189;-62
2022/01/21 03:41:49;;;;;;;15.53;4.23;;;;;;;;;;2056511;28;20187;-61
2022/01/21 03:42:52;;;;;;;13.00;4.27;;;;;;;;;;2064964;28;20559;-53
2022/01/21 03:43:53;;;;;;;10.43;4.00;;;;;;;;;;2061778;28;20911;-56
2022/01/21 03:44:53;;;;;;;12.80;4.97;;;;;;;;;;2064843;28;20169;-55
2022/01/21 03:45:53;;;;;;;22.50;6.00;;;;;;;;;;2065771;28;20771;-55
2022/01/21 03:46:53;;;;;;;13.87;4.90;;;;;;;;;;2059769;28;20180;-55
2022/01/21 03:47:55;;;;;;;18.40;4.73;;;;;;;;;;2065749;28;20248;-57
2022/01/21 03:48:55;;;;;;;11.30;4.60;;;;;;;;;;2073996;28;20422;-60
2022/01/21 03:50:08;;;;;;;19.30;4.43;;;;;;;;;;2073349;28;20176;-58
2022/01/21 03:51:08;;;;;;;12.73;4.47;;;;;;;;;;2067519;28;20177;-58
2022/01/21 03:52:08;;;;;;;11.40;5.17;;;;;;;;;;2065680;28;20177;-60
2022/01/21 03:53:09;;;;;;;11.57;4.83;;;;;;;;;;2061493;28;20245;-57
2022/01/21 03:54:09;;;;;;;13.57;4.90;;;;;;;;;;2057634;28;20229;-58
2022/01/21 03:55:10;;;;;;;11.50;4.47;;;;;;;;;;2070058;28;20180;-55
2022/01/21 03:56:10;;;;;;;10.20;4.37;;;;;;;;;;2073730;28;20205;-56
2022/01/21 03:57:10;;;;;;;10.77;4.47;;;;;;;;;;2074066;28;20169;-57
2022/01/21 03:58:11;;;;;;;13.87;4.77;;;;;;;;;;2073438;28;20180;-58
2022/01/21 03:59:15;;;;;;;13.57;4.40;;;;;;;;;;2073636;28;20183;-61
2022/01/21 04:00:20;;;;;;;11.80;4.30;;;;;;;;;;2073235;28;20458;-56
2022/01/21 04:01:24;;;;;;;12.57;4.13;;;;;;;;;;2074674;28;20231;-56
2022/01/21 04:02:24;;;;;;;10.80;3.80;;;;;;;;;;2069012;28;20493;-57
2022/01/21 04:03:26;;;;;;;9.10;4.00;;;;;;;;;;2065836;28;20178;-54
2022/01/21 04:04:28;;;;;;;12.70;5.07;;;;;;;;;;2069579;28;20645;-57
2022/01/21 04:05:29;;;;;;;12.93;4.10;;;;;;;;;;2064179;28;20415;-55
2022/01/21 04:06:30;;;;;;;18.10;4.93;;;;;;;;;;2073224;28;20268;-57
2022/01/21 04:07:30;;;;;;;13.60;4.17;;;;;;;;;;2065438;28;20189;-57
2022/01/21 04:08:30;;;;;;;19.43;5.37;;;;;;;;;;2073511;28;20204;-57
2022/01/21 04:09:36;;;;;;;9.77;4.80;;;;;;;;;;2073112;28;20188;-56
2022/01/21 04:10:41;;;;;;;9.80;4.70;;;;;;;;;;2066106;28;20933;-59
2022/01/21 04:11:41;;;;;;;12.03;4.57;;;;;;;;;;2065635;28;20174;-59
2022/01/21 04:12:42;;;;;;;10.40;5.10;;;;;;;;;;2065152;28;20425;-55
2022/01/21 04:13:43;;;;;;;16.77;5.80;;;;;;;;;;2062693;28;20208;-59
2022/01/21 04:14:46;;;;;;;12.17;5.00;;;;;;;;;;2058060;28;20205;-60
2022/01/21 04:15:47;;;;;;;13.77;5.97;;;;;;;;;;2065542;28;20403;-58
2022/01/21 04:16:48;;;;;;;8.87;4.40;;;;;;;;;;2057740;28;20413;-59
2022/01/21 04:17:48;;;;;;;11.50;4.57;;;;;;;;;;2059275;28;20443;-57
2022/01/21 04:18:49;;;;;;;12.60;4.80;;;;;;;;;;2067422;28;20185;-55
2022/01/21 04:19:50;;;;;;;15.90;5.57;;;;;;;;;;2064824;28;20545;-59
2022/01/21 04:20:51;;;;;;;16.00;5.23;;;;;;;;;;2073822;28;20600;-59
2022/01/21 04:21:51;;;;;;;12.07;4.47;;;;;;;;;;2065894;28;20170;-55
2022/01/21 04:22:53;;;;;;;9.87;4.70;;;;;;;;;;2066120;28;20426;-54
2022/01/21 04:23:54;;;;;;;11.77;4.90;;;;;;;;;;2065970;28;20197;-53
2022/01/21 04:25:03;;;;;;;9.93;4.67;;;;;;;;;;2066817;28;20177;-55
2022/01/21 04:26:03;;;;;;;12.00;4.80;;;;;;;;;;2065604;28;20938;-53
2022/01/21 04:27:04;;;;;;;13.57;4.73;;;;;;;;;;2065763;28;20293;-52
2022/01/21 04:28:06;;;;;;;11.80;5.30;;;;;;;;;;2065440;28;20257;-53
2022/01/21 04:29:06;;;;;;;11.77;4.00;;;;;;;;;;2065311;28;20677;-49
2022/01/21 04:30:14;;;;;;;17.53;4.77;;;;;;;;;;2066493;28;20184;-52
2022/01/21 04:31:14;;;;;;;20.27;6.30;;;;;;;;;;2065360;28;20407;-53
2022/01/21 04:32:18;;;;;;;11.10;5.00;;;;;;;;;;2065875;28;20188;-52
2022/01/21 04:33:19;;;;;;;14.17;4.53;;;;;;;;;;2073576;28;20514;-51
2022/01/21 04:34:29;;;;;;;18.07;5.33;;;;;;;;;;2066890;28;20177;-56
2022/01/21 04:35:30;;;;;;;9.33;3.90;;;;;;;;;;2065527;28;20515;-55
2022/01/21 04:36:31;;;;;;;13.57;4.83;;;;;;;;;;2065143;28;20204;-56
2022/01/21 04:37:32;;;;;;;13.03;4.60;;;;;;;;;;2065510;28;20173;-53
2022/01/21 04:38:32;;;;;;;11.57;4.30;;;;;;;;;;2072988;28;20228;-53
2022/01/21 04:39:38;;;;;;;11.67;4.07;;;;;;;;;;2094229;22;20397;-63
2022/01/21 04:40:52;;;;;;;11.50;4.60;;;;;;;;;;2072422;28;20219;-64
2022/01/21 04:47:23;;;;;;;7.23;3.87;;;;;;;;;;2065609;28;20425;-65
2022/01/21 04:48:25;;;;;;;15.03;4.43;;;;;;;;;;2068407;28;20176;-62
2022/01/21 04:49:25;;;;;;;11.03;4.33;;;;;;;;;;2072710;28;20954;-61
2022/01/21 04:50:26;;;;;;;12.17;5.40;;;;;;;;;;2064938;28;20180;-62
2022/01/21 04:51:38;;;;;;;11.23;4.33;;;;;;;;;;2065789;28;20173;-62
2022/01/21 04:52:39;;;;;;;11.57;4.13;;;;;;;;;;2066569;28;20233;-63
2022/01/21 04:53:49;;;;;;;14.97;4.63;;;;;;;;;;2059597;28;20865;-64
2022/01/21 04:54:56;;;;;;;12.10;4.27;;;;;;;;;;2065625;28;20411;-63
2022/01/21 04:55:59;;;;;;;8.13;4.57;;;;;;;;;;2065206;28;20458;-63
2022/01/21 04:56:59;;;;;;;7.63;4.00;;;;;;;;;;2068170;28;20410;-62
2022/01/21 04:58:00;;;;;;;12.87;5.57;;;;;;;;;;2068895;28;20169;-64
2022/01/21 04:59:02;;;;;;;9.10;4.30;;;;;;;;;;2057091;28;20169;-63
2022/01/21 05:00:05;;;;;;;11.80;5.03;;;;;;;;;;2057905;28;20748;-61
2022/01/21 05:01:06;;;;;;;7.13;4.47;;;;;;;;;;2062163;28;20167;-62
2022/01/21 05:02:07;;;;;;;9.27;4.40;;;;;;;;;;2065825;28;20174;-63
2022/01/21 05:03:07;;;;;;;14.17;4.63;;;;;;;;;;2065465;28;20423;-63
2022/01/21 05:04:07;;;;;;;12.17;5.00;;;;;;;;;;2065501;28;20510;-62
2022/01/21 05:05:09;;;;;;;11.03;5.30;;;;;;;;;;2064349;28;20264;-63
2022/01/21 05:06:09;;;;;;;18.83;5.37;;;;;;;;;;2065672;28;20634;-63
2022/01/21 05:07:13;;;;;;;10.80;4.23;;;;;;;;;;2065395;28;20553;-63
2022/01/21 05:08:24;;;;;;;13.47;4.60;;;;;;;;;;2073699;28;20185;-63
2022/01/21 05:09:33;;;;;;;12.23;4.53;;;;;;;;;;2066504;28;20403;-61
2022/01/21 05:10:35;;;;;;;12.10;4.70;;;;;;;;;;2066646;28;20484;-63
2022/01/21 05:11:37;;;;;;;9.47;4.60;;;;;;;;;;2070177;28;20185;-62
2022/01/21 05:12:37;;;;;;;11.07;4.73;;;;;;;;;;2066327;28;20865;-63
2022/01/21 05:13:42;;;;;;;13.43;4.97;;;;;;;;;;2073573;28;20476;-63
2022/01/21 05:15:29;;;;;;;9.63;5.23;;;;;;;;;;2066199;28;20192;-62
2022/01/21 05:16:51;;;;;;;9.77;4.93;;;;;;;;;;2066083;28;20189;-62
2022/01/21 05:17:40;;;;;;;12.20;4.90;;;;;;;;;;2062430;28;20185;-62
2022/01/21 05:18:41;;;;;;;9.37;4.43;;;;;;;;;;2066260;28;20473;-62
2022/01/21 05:20:07;;;;;;;10.63;5.40;;;;;;;;;;2057315;28;20221;-63
2022/01/21 05:21:15;;;;;;;15.70;5.13;;;;;;;;;;2060102;28;20407;-62
2022/01/21 05:22:29;;;;;;;12.30;4.77;;;;;;;;;;2065519;28;20406;-61
2022/01/21 05:23:29;;;;;;;10.23;5.03;;;;;;;;;;2065549;28;20392;-63
2022/01/21 05:24:30;;;;;;;12.77;4.97;;;;;;;;;;2066751;28;20212;-61
2022/01/21 05:25:31;;;;;;;12.90;5.67;;;;;;;;;;2066962;28;20169;-62
2022/01/21 05:26:37;;;;;;;12.03;4.73;;;;;;;;;;2058581;28;20194;-63
2022/01/21 05:27:38;;;;;;;11.53;5.33;;;;;;;;;;2066558;28;20431;-61
2022/01/21 05:28:38;;;;;;;10.10;5.20;;;;;;;;;;2066003;28;20384;-63
2022/01/21 05:29:48;;;;;;;12.67;5.37;;;;;;;;;;2065823;28;20203;-62
2022/01/21 05:31:05;;;;;;;9.00;4.60;;;;;;;;;;2054664;28;20437;-62
2022/01/21 05:32:23;;;;;;;13.83;4.63;;;;;;;;;;2064914;28;20177;-62
2022/01/21 05:33:49;;;;;;;9.17;4.20;;;;;;;;;;2071210;28;20402;-63
2022/01/21 05:35:02;;;;;;;8.60;4.87;;;;;;;;;;2074225;28;20534;-63
2022/01/21 05:36:14;;;;;;;13.93;4.77;;;;;;;;;;2068189;28;20502;-62
2022/01/21 05:37:33;;;;;;;14.83;4.77;;;;;;;;;;2073435;28;20149;-61
2022/01/21 05:39:00;;;;;;;14.73;4.70;;;;;;;;;;2043650;28;20422;-62
2022/01/21 05:40:21;;;;;;;11.67;5.13;;;;;;;;;;2066352;28;20188;-63
2022/01/21 05:41:45;;;;;;;8.17;4.53;;;;;;;;;;2066184;28;20390;-62
2022/01/21 05:42:58;;;;;;;10.50;5.17;;;;;;;;;;2060829;28;20424;-62
2022/01/21 05:47:19;;;;;;;11.30;4.67;;;;;;;;;;2072198;28;20416;-56
2022/01/21 05:48:36;;;;;;;13.33;5.67;;;;;;;;;;2072267;28;20176;-55
2022/01/21 05:49:55;;;;;;;12.87;4.60;;;;;;;;;;2069963;28;20415;-53
2022/01/21 05:51:12;;;;;;;9.47;4.30;;;;;;;;;;2065140;28;20203;-58
2022/01/21 05:52:34;;;;;;;9.77;4.47;;;;;;;;;;2064989;28;20408;-58
2022/01/21 05:53:50;;;;;;;10.63;4.97;;;;;;;;;;2068072;28;20938;-57
2022/01/21 05:55:04;;;;;;;8.60;4.17;;;;;;;;;;2055475;28;20174;-59
2022/01/21 05:56:31;;;;;;;9.10;4.00;;;;;;;;;;2069806;28;20200;-55
2022/01/21 05:57:39;;;;;;;7.23;3.70;;;;;;;;;;2070545;28;20165;-56
2022/01/21 05:58:39;;;;;;;11.87;4.50;;;;;;;;;;2071625;28;20197;-63
2022/01/21 05:59:40;;;;;;;9.60;3.90;;;;;;;;;;2066028;28;20213;-61
2022/01/21 06:00:44;;;;;;;9.83;4.13;;;;;;;;;;2069216;28;20235;-63
2022/01/21 06:01:44;;;;;;;6.60;3.73;;;;;;;;;;2074108;28;20221;-61
2022/01/21 06:02:45;;;;;;;8.43;3.90;;;;;;;;;;2065671;28;20161;-63
2022/01/21 06:03:46;;;;;;;10.33;4.33;;;;;;;;;;2071208;28;20265;-63
2022/01/21 06:04:49;;;;;;;7.87;3.53;;;;;;;;;;2074339;28;20165;-60
2022/01/21 06:05:50;;;;;;;9.47;3.97;;;;;;;;;;2066483;28;20165;-61
2022/01/21 06:06:50;;;;;;;10.03;3.57;;;;;;;;;;2074014;28;20240;-61
2022/01/21 06:07:50;;;;;;;5.00;3.30;;;;;;;;;;2064604;28;20177;-62
2022/01/21 06:08:51;;;;;;;9.70;3.40;;;;;;;;;;2063842;28;20356;-62
2022/01/21 06:09:51;;;;;;;10.50;3.80;;;;;;;;;;2071877;28;21285;-61
2022/01/21 06:10:51;;;;;;;7.33;3.70;;;;;;;;;;2072690;28;20196;-60
2022/01/21 06:11:51;;;;;;;9.60;3.60;;;;;;;;;;2068855;28;20535;-63
2022/01/21 06:12:52;;;;;;;11.57;3.90;;;;;;;;;;2076270;28;20203;-60
2022/01/21 06:13:52;;;;;;;8.63;4.00;;;;;;;;;;2072032;28;20208;-59
2022/01/21 06:14:52;;;;;;;7.47;3.57;;;;;;;;;;2064587;28;20197;-61
2022/01/21 06:15:55;;;;;;;7.57;3.63;;;;;;;;;;2078478;28;20199;-61
2022/01/21 06:16:55;;;;;;;13.47;4.13;;;;;;;;;;2072428;28;20173;-54
2022/01/21 06:17:55;;;;;;;8.53;3.70;;;;;;;;;;2074102;28;20168;-59
2022/01/21 06:18:55;;;;;;;12.43;3.57;;;;;;;;;;2069571;28;20283;-61
2022/01/21 06:19:56;;;;;;;10.60;3.50;;;;;;;;;;2073404;28;20287;-59
2022/01/21 06:20:56;;;;;;;6.00;3.20;;;;;;;;;;2074429;28;20173;-57
2022/01/21 06:21:57;;;;;;;10.37;3.27;;;;;;;;;;2073263;28;20189;-61
2022/01/21 06:22:57;;;;;;;5.60;3.00;;;;;;;;;;2073789;28;20165;-59
2022/01/21 06:23:57;;;;;;;8.27;3.33;;;;;;;;;;2072355;28;20153;-58
2022/01/21 06:24:57;;;;;;;6.80;3.73;;;;;;;;;;2066473;28;20204;-59
2022/01/21 06:25:58;;;;;;;9.23;3.40;;;;;;;;;;2071746;28;20177;-60
2022/01/21 06:27:01;;;;;;;7.43;3.53;;;;;;;;;;2071083;28;20196;-58
2022/01/21 06:28:02;;;;;;;8.00;3.80;;;;;;;;;;2070331;28;20203;-60
2022/01/21 06:29:03;;;;;;;7.77;4.40;;;;;;;;;;2070749;28;20166;-60
2022/01/21 06:30:04;;;;;;;6.30;4.00;;;;;;;;;;2069670;28;20310;-59
2022/01/21 06:31:04;;;;;;;6.53;3.03;;;;;;;;;;2070359;28;20418;-59
2022/01/21 06:32:04;;;;;;;9.00;3.60;;;;;;;;;;2063366;28;20236;-59
2022/01/21 06:33:05;;;;;;;9.93;4.43;;;;;;;;;;2070414;28;20205;-62
2022/01/21 06:34:05;;;;;;;6.40;3.20;;;;;;;;;;2064240;28;20224;-59
2022/01/21 06:35:06;;;;;;;7.30;3.57;;;;;;;;;;2061806;28;20182;-57
2022/01/21 06:36:06;;;;;;;7.73;3.70;;;;;;;;;;2070583;28;20700;-58
2022/01/21 06:37:06;;;;;;;8.33;4.23;;;;;;;;;;2074218;28;20170;-56
2022/01/21 06:38:06;;;;;;;9.37;3.90;;;;;;;;;;2070290;28;20206;-57
2022/01/21 06:39:07;;;;;;;13.20;3.80;;;;;;;;;;2072642;28;20165;-61
2022/01/21 06:40:08;;;;;;;10.00;3.67;;;;;;;;;;2069931;28;20275;-59
2022/01/21 06:41:08;;;;;;;6.53;3.93;;;;;;;;;;2053609;28;20178;-62
2022/01/21 06:42:09;;;;;;;7.13;4.00;;;;;;;;;;2048873;29;20175;-60
2022/01/21 06:43:09;;;;;;;10.97;3.50;;;;;;;;;;2072822;28;20718;-58
2022/01/21 06:44:09;;;;;;;7.73;3.97;;;;;;;;;;2069158;28;20294;-59
2022/01/21 06:45:10;;;;;;;8.00;4.07;;;;;;;;;;2072642;28;20234;-60
2022/01/21 06:46:11;;;;;;;7.43;3.50;;;;;;;;;;2068707;28;20178;-59
2022/01/21 06:47:11;;;;;;;6.77;3.77;;;;;;;;;;2070838;28;20176;-59
2022/01/21 06:48:11;;;;;;;9.23;4.37;;;;;;;;;;2071637;28;20259;-59
2022/01/21 06:49:11;;;;;;;9.10;4.13;;;;;;;;;;2070003;28;20169;-60
2022/01/21 06:50:12;;;;;;;7.40;3.70;;;;;;;;;;2067516;28;20582;-59
2022/01/21 06:51:12;;;;;;;13.30;3.97;;;;;;;;;;2062833;28;20221;-60
2022/01/21 06:52:13;;;;;;;8.10;3.67;;;;;;;;;;2063331;28;20201;-59
2022/01/21 06:53:13;;;;;;;11.27;4.17;;;;;;;;;;2072081;28;20303;-58
2022/01/21 06:54:13;;;;;;;14.23;4.23;;;;;;;;;;2072785;28;20185;-59
2022/01/21 06:55:13;;;;;;;5.90;4.23;;;;;;;;;;2070134;28;20223;-59
2022/01/21 06:56:14;;;;;;;9.87;4.47;;;;;;;;;;2069986;28;20291;-60